Terminal Aerodrome Forecast
Issued by NWS Wilmington, OH

Home | Current Version | Previous Version | Text Only | Print | Product List | Glossary On
Versions: 1 2 3 4 5 6 7 8 9 10 11 12 13 14 15 16 17 18 19 20 21 22 23 24 25 26 27
000
FTUS41 KILN 221753 AAA
TAFCVG
TAF AMD
KCVG 221753Z 2218/2324 25011G18KT P6SM -SHRA VCTS BKN035CB
      TEMPO 2218/2219 2SM TSRA BR OVC025CB
     FM222000 25012G21KT P6SM VCSH BKN035
     FM222100 29008KT P6SM BKN035
     FM230500 33005KT P6SM SCT150
     FM231500 31008KT P6SM SCT050=

USA.gov is the U.S. government's official web portal to all federal, state and local government web resources and services.